Terminal Aerodrome Forecast
Issued by NWS

Home | Current Version | Previous Version | Text Only | Print | Product List | Glossary On
Versions: 1 2 3 4 5 6 7 8 9 10 11 12 13 14 15 16 17 18 19 20 21 22 23 24 25
000
FTUS46 KMTR 020500
TAFSFO
TAF
KSFO 020539Z 0206/0312 29017KT P6SM FEW003
     FM020900 29008KT P6SM SCT012
     FM021200 28008KT P6SM BKN008
     FM021700 29010KT P6SM SCT010
     FM022000 29015KT P6SM SKC
     FM022300 30017G23KT P6SM SKC
     FM030400 29014KT P6SM SCT010
     FM030600 26008KT P6SM BKN010=

USA.gov is the U.S. government's official web portal to all federal, state and local government web resources and services.